Kezdőlap
METAR-TAF:

METAR-TAF

Repülőterek :

N’Djamena, Csád

földrajzi szélesség: 12-08N, földrajzi hosszúság: 015-02E, magasság: 295 m

Jelenlegi meteorológiai megfigyelések

A jelentés 51 perccel ezelõtt készült, 03:00 UTC
Észak-északnyugati szél 7 kt
Hőmérséklet 18°C
Páratartalom 34%
Légköri nyomás 1015 hPa
Látótávolság 10 km, vagy több
felhőtlen 1500 m magasságban, és nincs gomolyfelhõ

METAR: FTTJ 100300Z 34007KT CAVOK 18/02 Q1015 NOSIG

Idő: 04:51 (03:51 UTC)

Előrejelzés

A jelentés 10 órával és 51 perccel ezelõtt készült, 17:00 UTC
Az előrejelzés 09-én 18 óra UTC és 10-én 24 óra UTC között érvényes
Északi szél 8 kt
Látótávolság: 8000 m
10-én 16 óra UTC és 10-én 17 óra UTC között fokozatosan kialakuló
Látótávolság: 2500 m
kiterjedt por

TAF: FTTJ 091700Z 0918/1024 01008KT 8000 NSC BECMG 1016/1017 2500 DU

Meteorológiai megfigyelések és előrejelzések több, mint 4000 repülőtéren (METAR és TAF jelentéseket).

A térképen piros és sárga pontok jelzik az elérhető meteorológiai állomásokat.

Mozgassa az egeret a pont fölött, hogy megjelenjen az állomás neve.

Azután kattintson az időjárási megfigyelések és előrejelzések megtekintéséhez.

A térkép megváltoztatása: kattintson a fekete keresztel jelölt zöld gombra ráközelítéshez, a vonallal jelölt zöld gombra távolításhoz, vagy a zöld nyilakra a szomszédos térképek eléréséhez.


METAR-TAF: